sensor_id;sensor_type;location;lat;lon;timestamp;P1;durP1;ratioP1;P2;durP2;ratioP2
6027;SDS011;3042;43.194;27.646;2024-03-29T00:02:08;36.27;;;32.03;;
6027;SDS011;3042;43.194;27.646;2024-03-29T00:04:34;31.57;;;28.27;;
6027;SDS011;3042;43.194;27.646;2024-03-29T00:07:00;37.27;;;32.43;;
6027;SDS011;3042;43.194;27.646;2024-03-29T00:09:26;32.73;;;29.93;;
6027;SDS011;3042;43.194;27.646;2024-03-29T00:11:53;54.27;;;33.53;;
6027;SDS011;3042;43.194;27.646;2024-03-29T00:14:21;34.23;;;30.80;;
6027;SDS011;3042;43.194;27.646;2024-03-29T00:16:48;36.00;;;32.00;;
6027;SDS011;3042;43.194;27.646;2024-03-29T00:19:17;30.97;;;28.50;;
6027;SDS011;3042;43.194;27.646;2024-03-29T00:21:50;38.70;;;30.60;;
6027;SDS011;3042;43.194;27.646;2024-03-29T00:24:18;39.83;;;31.03;;
6027;SDS011;3042;43.194;27.646;2024-03-29T00:26:45;35.97;;;32.07;;
6027;SDS011;3042;43.194;27.646;2024-03-29T00:29:12;39.70;;;31.53;;
6027;SDS011;3042;43.194;27.646;2024-03-29T00:31:44;40.87;;;31.37;;
6027;SDS011;3042;43.194;27.646;2024-03-29T00:34:12;34.27;;;31.13;;
6027;SDS011;3042;43.194;27.646;2024-03-29T00:36:40;34.50;;;30.97;;
6027;SDS011;3042;43.194;27.646;2024-03-29T00:39:08;33.77;;;27.30;;
6027;SDS011;3042;43.194;27.646;2024-03-29T00:41:36;36.93;;;33.10;;
6027;SDS011;3042;43.194;27.646;2024-03-29T00:44:02;50.00;;;30.00;;
6027;SDS011;3042;43.194;27.646;2024-03-29T00:46:28;31.97;;;28.70;;
6027;SDS011;3042;43.194;27.646;2024-03-29T00:48:56;40.53;;;32.13;;
6027;SDS011;3042;43.194;27.646;2024-03-29T00:51:22;49.27;;;27.13;;
6027;SDS011;3042;43.194;27.646;2024-03-29T00:53:48;55.27;;;33.13;;
6027;SDS011;3042;43.194;27.646;2024-03-29T00:56:15;34.47;;;31.03;;
6027;SDS011;3042;43.194;27.646;2024-03-29T00:58:41;39.37;;;31.50;;
6027;SDS011;3042;43.194;27.646;2024-03-29T01:01:07;34.17;;;31.23;;
6027;SDS011;3042;43.194;27.646;2024-03-29T01:03:34;38.03;;;32.93;;
6027;SDS011;3042;43.194;27.646;2024-03-29T01:06:08;51.37;;;31.20;;
6027;SDS011;3042;43.194;27.646;2024-03-29T01:08:39;47.90;;;31.83;;
6027;SDS011;3042;43.194;27.646;2024-03-29T01:11:09;33.17;;;30.63;;
6027;SDS011;3042;43.194;27.646;2024-03-29T01:13:38;34.00;;;30.67;;
6027;SDS011;3042;43.194;27.646;2024-03-29T01:16:10;41.80;;;31.97;;
6027;SDS011;3042;43.194;27.646;2024-03-29T01:18:39;33.93;;;30.60;;
6027;SDS011;3042;43.194;27.646;2024-03-29T01:21:09;33.57;;;30.13;;
6027;SDS011;3042;43.194;27.646;2024-03-29T01:23:35;32.33;;;29.00;;
6027;SDS011;3042;43.194;27.646;2024-03-29T01:26:02;33.13;;;30.00;;
6027;SDS011;3042;43.194;27.646;2024-03-29T01:28:28;42.77;;;32.03;;
6027;SDS011;3042;43.194;27.646;2024-03-29T01:30:54;34.03;;;30.90;;
6027;SDS011;3042;43.194;27.646;2024-03-29T01:33:21;34.10;;;30.80;;
6027;SDS011;3042;43.194;27.646;2024-03-29T01:35:49;34.43;;;29.97;;
6027;SDS011;3042;43.194;27.646;2024-03-29T01:38:20;31.00;;;28.40;;
6027;SDS011;3042;43.194;27.646;2024-03-29T01:40:51;33.20;;;29.80;;
6027;SDS011;3042;43.194;27.646;2024-03-29T01:43:17;31.53;;;28.73;;
6027;SDS011;3042;43.194;27.646;2024-03-29T01:45:49;29.90;;;27.50;;
6027;SDS011;3042;43.194;27.646;2024-03-29T01:48:20;33.17;;;29.97;;
6027;SDS011;3042;43.194;27.646;2024-03-29T01:50:53;33.47;;;27.47;;
6027;SDS011;3042;43.194;27.646;2024-03-29T01:53:24;34.47;;;30.70;;
6027;SDS011;3042;43.194;27.646;2024-03-29T01:55:56;32.13;;;29.90;;
6027;SDS011;3042;43.194;27.646;2024-03-29T01:58:28;32.13;;;29.10;;
6027;SDS011;3042;43.194;27.646;2024-03-29T02:00:59;32.67;;;29.97;;
6027;SDS011;3042;43.194;27.646;2024-03-29T02:03:32;31.00;;;28.10;;
6027;SDS011;3042;43.194;27.646;2024-03-29T02:05:59;31.20;;;28.10;;
6027;SDS011;3042;43.194;27.646;2024-03-29T02:08:30;35.20;;;28.63;;
6027;SDS011;3042;43.194;27.646;2024-03-29T02:10:57;29.53;;;27.10;;
6027;SDS011;3042;43.194;27.646;2024-03-29T02:13:25;31.63;;;28.80;;
6027;SDS011;3042;43.194;27.646;2024-03-29T02:15:52;29.87;;;27.60;;
6027;SDS011;3042;43.194;27.646;2024-03-29T02:18:19;28.07;;;25.50;;
6027;SDS011;3042;43.194;27.646;2024-03-29T02:20:47;32.00;;;29.70;;
6027;SDS011;3042;43.194;27.646;2024-03-29T02:23:16;32.97;;;29.40;;
6027;SDS011;3042;43.194;27.646;2024-03-29T02:25:47;30.90;;;27.80;;
6027;SDS011;3042;43.194;27.646;2024-03-29T02:28:15;33.37;;;29.90;;
6027;SDS011;3042;43.194;27.646;2024-03-29T02:30:45;33.93;;;30.53;;
6027;SDS011;3042;43.194;27.646;2024-03-29T02:33:17;34.07;;;30.50;;
6027;SDS011;3042;43.194;27.646;2024-03-29T02:35:44;32.03;;;29.60;;
6027;SDS011;3042;43.194;27.646;2024-03-29T02:38:12;34.27;;;30.00;;
6027;SDS011;3042;43.194;27.646;2024-03-29T02:40:48;33.00;;;29.83;;
6027;SDS011;3042;43.194;27.646;2024-03-29T02:43:19;41.57;;;31.50;;
6027;SDS011;3042;43.194;27.646;2024-03-29T02:45:54;50.40;;;30.33;;
6027;SDS011;3042;43.194;27.646;2024-03-29T02:48:23;41.27;;;31.10;;
6027;SDS011;3042;43.194;27.646;2024-03-29T02:50:50;41.83;;;25.23;;
6027;SDS011;3042;43.194;27.646;2024-03-29T02:53:23;33.80;;;31.00;;
6027;SDS011;3042;43.194;27.646;2024-03-29T02:55:54;32.97;;;29.90;;
6027;SDS011;3042;43.194;27.646;2024-03-29T02:58:21;34.17;;;30.50;;
6027;SDS011;3042;43.194;27.646;2024-03-29T03:00:47;37.93;;;30.80;;
6027;SDS011;3042;43.194;27.646;2024-03-29T03:03:15;34.77;;;30.93;;
6027;SDS011;3042;43.194;27.646;2024-03-29T03:05:44;34.93;;;31.23;;
6027;SDS011;3042;43.194;27.646;2024-03-29T03:08:19;37.07;;;33.00;;
6027;SDS011;3042;43.194;27.646;2024-03-29T03:11:09;43.40;;;29.97;;
6027;SDS011;3042;43.194;27.646;2024-03-29T03:13:45;48.67;;;32.60;;
6027;SDS011;3042;43.194;27.646;2024-03-29T03:16:20;36.50;;;32.47;;
6027;SDS011;3042;43.194;27.646;2024-03-29T03:18:50;34.80;;;31.20;;
6027;SDS011;3042;43.194;27.646;2024-03-29T03:21:23;46.87;;;34.97;;
6027;SDS011;3042;43.194;27.646;2024-03-29T03:23:59;38.50;;;34.40;;
6027;SDS011;3042;43.194;27.646;2024-03-29T03:26:35;44.97;;;34.67;;
6027;SDS011;3042;43.194;27.646;2024-03-29T03:29:12;39.10;;;33.60;;
6027;SDS011;3042;43.194;27.646;2024-03-29T03:31:48;41.93;;;33.93;;
6027;SDS011;3042;43.194;27.646;2024-03-29T03:34:23;38.40;;;34.37;;
6027;SDS011;3042;43.194;27.646;2024-03-29T03:36:59;36.30;;;32.67;;
6027;SDS011;3042;43.194;27.646;2024-03-29T03:39:33;37.20;;;33.33;;
6027;SDS011;3042;43.194;27.646;2024-03-29T03:42:14;35.50;;;32.20;;
6027;SDS011;3042;43.194;27.646;2024-03-29T03:44:47;34.10;;;31.00;;
6027;SDS011;3042;43.194;27.646;2024-03-29T03:47:24;36.87;;;33.00;;
6027;SDS011;3042;43.194;27.646;2024-03-29T03:49:57;35.73;;;31.87;;
6027;SDS011;3042;43.194;27.646;2024-03-29T03:52:32;35.13;;;31.97;;
6027;SDS011;3042;43.194;27.646;2024-03-29T03:55:06;37.27;;;33.30;;
6027;SDS011;3042;43.194;27.646;2024-03-29T03:57:46;36.20;;;32.57;;
6027;SDS011;3042;43.194;27.646;2024-03-29T04:00:23;38.17;;;34.43;;
6027;SDS011;3042;43.194;27.646;2024-03-29T04:02:54;34.53;;;31.00;;
6027;SDS011;3042;43.194;27.646;2024-03-29T04:05:22;43.90;;;33.30;;
6027;SDS011;3042;43.194;27.646;2024-03-29T04:07:50;37.33;;;33.73;;
6027;SDS011;3042;43.194;27.646;2024-03-29T04:10:17;37.10;;;33.40;;
6027;SDS011;3042;43.194;27.646;2024-03-29T04:12:44;39.93;;;35.67;;
6027;SDS011;3042;43.194;27.646;2024-03-29T04:15:12;37.83;;;33.97;;
6027;SDS011;3042;43.194;27.646;2024-03-29T04:17:38;38.57;;;34.93;;
6027;SDS011;3042;43.194;27.646;2024-03-29T04:20:05;41.33;;;36.07;;
6027;SDS011;3042;43.194;27.646;2024-03-29T04:22:32;36.20;;;32.40;;
6027;SDS011;3042;43.194;27.646;2024-03-29T04:24:59;44.90;;;35.13;;
6027;SDS011;3042;43.194;27.646;2024-03-29T04:27:26;35.07;;;31.70;;
6027;SDS011;3042;43.194;27.646;2024-03-29T04:29:55;38.73;;;30.33;;
6027;SDS011;3042;43.194;27.646;2024-03-29T04:32:21;40.67;;;31.37;;
6027;SDS011;3042;43.194;27.646;2024-03-29T04:34:48;37.73;;;29.47;;
6027;SDS011;3042;43.194;27.646;2024-03-29T04:37:15;43.10;;;27.30;;
6027;SDS011;3042;43.194;27.646;2024-03-29T04:39:43;29.67;;;26.77;;
6027;SDS011;3042;43.194;27.646;2024-03-29T04:42:11;26.67;;;23.87;;
6027;SDS011;3042;43.194;27.646;2024-03-29T04:44:40;36.77;;;25.03;;
6027;SDS011;3042;43.194;27.646;2024-03-29T04:47:08;32.13;;;26.03;;
6027;SDS011;3042;43.194;27.646;2024-03-29T04:49:36;25.23;;;22.63;;
6027;SDS011;3042;43.194;27.646;2024-03-29T04:52:03;28.37;;;25.43;;
6027;SDS011;3042;43.194;27.646;2024-03-29T04:54:31;28.20;;;25.50;;
6027;SDS011;3042;43.194;27.646;2024-03-29T04:56:58;26.97;;;21.67;;
6027;SDS011;3042;43.194;27.646;2024-03-29T04:59:27;25.00;;;22.43;;
6027;SDS011;3042;43.194;27.646;2024-03-29T05:01:54;28.63;;;23.43;;
6027;SDS011;3042;43.194;27.646;2024-03-29T05:04:23;27.63;;;22.53;;
6027;SDS011;3042;43.194;27.646;2024-03-29T05:06:51;40.40;;;22.90;;
6027;SDS011;3042;43.194;27.646;2024-03-29T05:09:19;25.20;;;21.83;;
6027;SDS011;3042;43.194;27.646;2024-03-29T05:11:46;44.43;;;24.00;;
6027;SDS011;3042;43.194;27.646;2024-03-29T05:14:14;35.07;;;22.70;;
6027;SDS011;3042;43.194;27.646;2024-03-29T05:16:43;50.07;;;21.47;;
6027;SDS011;3042;43.194;27.646;2024-03-29T05:19:11;25.73;;;18.57;;
6027;SDS011;3042;43.194;27.646;2024-03-29T05:21:40;31.60;;;22.03;;
6027;SDS011;3042;43.194;27.646;2024-03-29T05:24:07;37.43;;;23.47;;
6027;SDS011;3042;43.194;27.646;2024-03-29T05:26:35;29.43;;;21.67;;
6027;SDS011;3042;43.194;27.646;2024-03-29T05:29:02;29.63;;;21.70;;
6027;SDS011;3042;43.194;27.646;2024-03-29T05:31:30;29.13;;;22.60;;
6027;SDS011;3042;43.194;27.646;2024-03-29T05:33:57;29.00;;;23.10;;
6027;SDS011;3042;43.194;27.646;2024-03-29T05:36:25;35.57;;;22.87;;
6027;SDS011;3042;43.194;27.646;2024-03-29T05:38:54;23.07;;;20.27;;
6027;SDS011;3042;43.194;27.646;2024-03-29T05:41:21;24.83;;;19.43;;
6027;SDS011;3042;43.194;27.646;2024-03-29T05:43:49;39.03;;;21.80;;
6027;SDS011;3042;43.194;27.646;2024-03-29T05:46:16;23.47;;;19.80;;
6027;SDS011;3042;43.194;27.646;2024-03-29T05:48:44;53.83;;;23.50;;
6027;SDS011;3042;43.194;27.646;2024-03-29T05:51:11;39.70;;;27.10;;
6027;SDS011;3042;43.194;27.646;2024-03-29T05:53:38;61.17;;;27.20;;
6027;SDS011;3042;43.194;27.646;2024-03-29T05:56:07;39.00;;;26.77;;
6027;SDS011;3042;43.194;27.646;2024-03-29T05:58:34;39.00;;;30.00;;
6027;SDS011;3042;43.194;27.646;2024-03-29T06:01:01;46.50;;;26.80;;
6027;SDS011;3042;43.194;27.646;2024-03-29T06:03:29;34.17;;;24.77;;
6027;SDS011;3042;43.194;27.646;2024-03-29T06:05:56;49.80;;;29.50;;
6027;SDS011;3042;43.194;27.646;2024-03-29T06:08:23;53.90;;;25.97;;
6027;SDS011;3042;43.194;27.646;2024-03-29T06:10:52;28.93;;;22.20;;
6027;SDS011;3042;43.194;27.646;2024-03-29T06:13:21;28.53;;;22.27;;
6027;SDS011;3042;43.194;27.646;2024-03-29T06:16:10;32.40;;;20.83;;
6027;SDS011;3042;43.194;27.646;2024-03-29T06:18:55;44.03;;;33.43;;
6027;SDS011;3042;43.194;27.646;2024-03-29T06:21:22;98.20;;;22.97;;
6027;SDS011;3042;43.194;27.646;2024-03-29T06:23:49;59.30;;;22.83;;
6027;SDS011;3042;43.194;27.646;2024-03-29T06:26:17;48.23;;;21.10;;
6027;SDS011;3042;43.194;27.646;2024-03-29T06:28:45;36.80;;;29.27;;
6027;SDS011;3042;43.194;27.646;2024-03-29T06:31:12;44.17;;;23.30;;
6027;SDS011;3042;43.194;27.646;2024-03-29T06:33:40;61.93;;;23.67;;
6027;SDS011;3042;43.194;27.646;2024-03-29T06:36:07;34.43;;;25.87;;
6027;SDS011;3042;43.194;27.646;2024-03-29T06:38:34;22.33;;;20.00;;
6027;SDS011;3042;43.194;27.646;2024-03-29T06:41:01;45.13;;;22.90;;
6027;SDS011;3042;43.194;27.646;2024-03-29T06:43:28;31.03;;;22.77;;
6027;SDS011;3042;43.194;27.646;2024-03-29T06:45:57;46.97;;;26.50;;
6027;SDS011;3042;43.194;27.646;2024-03-29T06:48:24;51.83;;;24.60;;
6027;SDS011;3042;43.194;27.646;2024-03-29T06:50:52;35.03;;;22.47;;
6027;SDS011;3042;43.194;27.646;2024-03-29T06:53:19;46.53;;;23.77;;
6027;SDS011;3042;43.194;27.646;2024-03-29T06:55:47;64.93;;;27.70;;
6027;SDS011;3042;43.194;27.646;2024-03-29T06:58:15;37.83;;;23.73;;
6027;SDS011;3042;43.194;27.646;2024-03-29T07:00:43;31.30;;;23.50;;
6027;SDS011;3042;43.194;27.646;2024-03-29T07:03:13;38.37;;;22.93;;
6027;SDS011;3042;43.194;27.646;2024-03-29T07:05:40;38.33;;;24.00;;
6027;SDS011;3042;43.194;27.646;2024-03-29T07:08:07;27.27;;;22.93;;
6027;SDS011;3042;43.194;27.646;2024-03-29T07:10:35;35.47;;;22.50;;
6027;SDS011;3042;43.194;27.646;2024-03-29T07:13:02;28.23;;;20.97;;
6027;SDS011;3042;43.194;27.646;2024-03-29T07:15:29;24.90;;;20.20;;
6027;SDS011;3042;43.194;27.646;2024-03-29T07:17:56;26.33;;;21.10;;
6027;SDS011;3042;43.194;27.646;2024-03-29T07:20:25;27.60;;;21.37;;
6027;SDS011;3042;43.194;27.646;2024-03-29T07:22:53;26.97;;;19.53;;
6027;SDS011;3042;43.194;27.646;2024-03-29T07:25:20;33.47;;;21.83;;
6027;SDS011;3042;43.194;27.646;2024-03-29T07:27:47;33.47;;;22.07;;
6027;SDS011;3042;43.194;27.646;2024-03-29T07:30:15;28.43;;;21.40;;
6027;SDS011;3042;43.194;27.646;2024-03-29T07:32:43;24.40;;;22.00;;
6027;SDS011;3042;43.194;27.646;2024-03-29T07:35:10;52.27;;;26.63;;
6027;SDS011;3042;43.194;27.646;2024-03-29T07:37:41;30.33;;;22.57;;
6027;SDS011;3042;43.194;27.646;2024-03-29T07:40:11;35.07;;;21.97;;
6027;SDS011;3042;43.194;27.646;2024-03-29T07:42:38;25.03;;;22.70;;
6027;SDS011;3042;43.194;27.646;2024-03-29T07:45:06;23.70;;;21.50;;
6027;SDS011;3042;43.194;27.646;2024-03-29T07:47:33;22.73;;;20.80;;
6027;SDS011;3042;43.194;27.646;2024-03-29T07:50:01;38.87;;;22.73;;
6027;SDS011;3042;43.194;27.646;2024-03-29T07:52:28;44.87;;;22.20;;
6027;SDS011;3042;43.194;27.646;2024-03-29T07:54:57;29.93;;;20.60;;
6027;SDS011;3042;43.194;27.646;2024-03-29T07:57:25;21.43;;;19.20;;
6027;SDS011;3042;43.194;27.646;2024-03-29T07:59:52;22.33;;;19.43;;
6027;SDS011;3042;43.194;27.646;2024-03-29T08:02:19;20.97;;;18.13;;
6027;SDS011;3042;43.194;27.646;2024-03-29T08:04:46;27.60;;;22.27;;
6027;SDS011;3042;43.194;27.646;2024-03-29T08:07:14;20.87;;;19.27;;
6027;SDS011;3042;43.194;27.646;2024-03-29T08:09:41;24.93;;;22.73;;
6027;SDS011;3042;43.194;27.646;2024-03-29T08:12:09;24.63;;;22.03;;
6027;SDS011;3042;43.194;27.646;2024-03-29T08:14:36;30.93;;;23.10;;
6027;SDS011;3042;43.194;27.646;2024-03-29T08:17:03;21.63;;;19.53;;
6027;SDS011;3042;43.194;27.646;2024-03-29T08:19:34;19.77;;;18.53;;
6027;SDS011;3042;43.194;27.646;2024-03-29T08:22:01;27.13;;;20.00;;
6027;SDS011;3042;43.194;27.646;2024-03-29T08:24:29;32.37;;;24.17;;
6027;SDS011;3042;43.194;27.646;2024-03-29T08:26:56;42.17;;;19.40;;
6027;SDS011;3042;43.194;27.646;2024-03-29T08:29:26;21.93;;;16.83;;
6027;SDS011;3042;43.194;27.646;2024-03-29T08:31:53;29.63;;;17.40;;
6027;SDS011;3042;43.194;27.646;2024-03-29T08:34:21;26.83;;;18.43;;
6027;SDS011;3042;43.194;27.646;2024-03-29T08:36:47;24.40;;;18.90;;
6027;SDS011;3042;43.194;27.646;2024-03-29T08:39:14;36.20;;;23.10;;
6027;SDS011;3042;43.194;27.646;2024-03-29T08:41:42;66.73;;;25.10;;
6027;SDS011;3042;43.194;27.646;2024-03-29T08:44:10;32.13;;;19.40;;
6027;SDS011;3042;43.194;27.646;2024-03-29T08:46:39;36.57;;;22.83;;
6027;SDS011;3042;43.194;27.646;2024-03-29T08:49:06;49.67;;;24.77;;
6027;SDS011;3042;43.194;27.646;2024-03-29T08:51:33;29.50;;;20.43;;
6027;SDS011;3042;43.194;27.646;2024-03-29T08:54:01;47.27;;;21.80;;
6027;SDS011;3042;43.194;27.646;2024-03-29T08:56:30;41.13;;;19.50;;
6027;SDS011;3042;43.194;27.646;2024-03-29T08:58:58;76.93;;;24.60;;
6027;SDS011;3042;43.194;27.646;2024-03-29T09:01:28;67.73;;;23.13;;
6027;SDS011;3042;43.194;27.646;2024-03-29T09:03:57;25.37;;;23.00;;
6027;SDS011;3042;43.194;27.646;2024-03-29T09:06:24;20.40;;;18.40;;
6027;SDS011;3042;43.194;27.646;2024-03-29T09:08:51;19.90;;;18.43;;
6027;SDS011;3042;43.194;27.646;2024-03-29T09:11:19;36.87;;;18.97;;
6027;SDS011;3042;43.194;27.646;2024-03-29T09:13:46;25.03;;;22.60;;
6027;SDS011;3042;43.194;27.646;2024-03-29T09:16:13;27.33;;;21.27;;
6027;SDS011;3042;43.194;27.646;2024-03-29T09:18:40;30.43;;;20.90;;
6027;SDS011;3042;43.194;27.646;2024-03-29T09:21:09;21.47;;;19.20;;
6027;SDS011;3042;43.194;27.646;2024-03-29T09:23:36;23.50;;;21.10;;
6027;SDS011;3042;43.194;27.646;2024-03-29T09:26:06;24.43;;;19.20;;
6027;SDS011;3042;43.194;27.646;2024-03-29T09:28:34;23.03;;;16.60;;
6027;SDS011;3042;43.194;27.646;2024-03-29T09:31:02;17.17;;;15.77;;
6027;SDS011;3042;43.194;27.646;2024-03-29T09:33:29;21.60;;;17.77;;
6027;SDS011;3042;43.194;27.646;2024-03-29T09:35:57;52.17;;;23.50;;
6027;SDS011;3042;43.194;27.646;2024-03-29T09:38:26;95.00;;;26.80;;
6027;SDS011;3042;43.194;27.646;2024-03-29T09:40:56;27.87;;;23.40;;
6027;SDS011;3042;43.194;27.646;2024-03-29T09:43:32;32.07;;;23.50;;
6027;SDS011;3042;43.194;27.646;2024-03-29T09:45:59;31.23;;;22.70;;
6027;SDS011;3042;43.194;27.646;2024-03-29T09:48:26;26.70;;;22.43;;
6027;SDS011;3042;43.194;27.646;2024-03-29T09:51:01;27.03;;;24.33;;
6027;SDS011;3042;43.194;27.646;2024-03-29T09:53:31;65.53;;;24.50;;
6027;SDS011;3042;43.194;27.646;2024-03-29T09:56:01;24.60;;;20.93;;
6027;SDS011;3042;43.194;27.646;2024-03-29T09:58:30;26.17;;;19.87;;
6027;SDS011;3042;43.194;27.646;2024-03-29T10:00:58;26.20;;;21.17;;
6027;SDS011;3042;43.194;27.646;2024-03-29T10:03:25;34.83;;;20.50;;
6027;SDS011;3042;43.194;27.646;2024-03-29T10:05:55;19.30;;;17.80;;
6027;SDS011;3042;43.194;27.646;2024-03-29T10:08:24;21.43;;;19.07;;
6027;SDS011;3042;43.194;27.646;2024-03-29T10:10:54;20.60;;;19.20;;
6027;SDS011;3042;43.194;27.646;2024-03-29T10:13:22;19.87;;;18.00;;
6027;SDS011;3042;43.194;27.646;2024-03-29T10:15:49;17.60;;;16.20;;
6027;SDS011;3042;43.194;27.646;2024-03-29T10:18:18;21.60;;;19.03;;
6027;SDS011;3042;43.194;27.646;2024-03-29T10:20:46;24.60;;;19.47;;
6027;SDS011;3042;43.194;27.646;2024-03-29T10:23:13;35.70;;;18.10;;
6027;SDS011;3042;43.194;27.646;2024-03-29T10:25:42;30.33;;;20.00;;
6027;SDS011;3042;43.194;27.646;2024-03-29T10:28:12;30.93;;;23.37;;
6027;SDS011;3042;43.194;27.646;2024-03-29T10:30:39;25.20;;;22.90;;
6027;SDS011;3042;43.194;27.646;2024-03-29T10:33:06;25.90;;;23.03;;
6027;SDS011;3042;43.194;27.646;2024-03-29T10:35:33;24.80;;;22.43;;
6027;SDS011;3042;43.194;27.646;2024-03-29T10:38:02;27.27;;;24.67;;
6027;SDS011;3042;43.194;27.646;2024-03-29T10:40:29;30.63;;;23.20;;
6027;SDS011;3042;43.194;27.646;2024-03-29T10:42:57;59.33;;;23.90;;
6027;SDS011;3042;43.194;27.646;2024-03-29T10:45:26;30.93;;;24.10;;
6027;SDS011;3042;43.194;27.646;2024-03-29T10:47:55;33.70;;;22.80;;
6027;SDS011;3042;43.194;27.646;2024-03-29T10:50:23;28.50;;;24.77;;
6027;SDS011;3042;43.194;27.646;2024-03-29T10:52:52;31.93;;;25.10;;
6027;SDS011;3042;43.194;27.646;2024-03-29T10:55:20;50.97;;;24.67;;
6027;SDS011;3042;43.194;27.646;2024-03-29T10:57:48;35.43;;;19.50;;
6027;SDS011;3042;43.194;27.646;2024-03-29T11:00:21;28.47;;;20.93;;
6027;SDS011;3042;43.194;27.646;2024-03-29T11:02:51;56.30;;;26.07;;
6027;SDS011;3042;43.194;27.646;2024-03-29T11:05:26;24.23;;;22.10;;
6027;SDS011;3042;43.194;27.646;2024-03-29T11:07:55;17.97;;;16.30;;
6027;SDS011;3042;43.194;27.646;2024-03-29T11:10:24;38.13;;;19.00;;
6027;SDS011;3042;43.194;27.646;2024-03-29T11:12:58;34.20;;;21.23;;
6027;SDS011;3042;43.194;27.646;2024-03-29T11:15:29;36.33;;;23.23;;
6027;SDS011;3042;43.194;27.646;2024-03-29T11:17:59;44.37;;;24.40;;
6027;SDS011;3042;43.194;27.646;2024-03-29T11:20:28;24.83;;;22.83;;
6027;SDS011;3042;43.194;27.646;2024-03-29T11:23:05;24.50;;;22.70;;
6027;SDS011;3042;43.194;27.646;2024-03-29T11:25:39;26.20;;;23.47;;
6027;SDS011;3042;43.194;27.646;2024-03-29T11:28:07;25.00;;;22.57;;
6027;SDS011;3042;43.194;27.646;2024-03-29T11:30:42;25.80;;;23.00;;
6027;SDS011;3042;43.194;27.646;2024-03-29T11:33:30;25.00;;;22.93;;
6027;SDS011;3042;43.194;27.646;2024-03-29T11:35:59;24.17;;;22.37;;
6027;SDS011;3042;43.194;27.646;2024-03-29T11:38:33;24.80;;;22.60;;
6027;SDS011;3042;43.194;27.646;2024-03-29T11:41:01;26.97;;;24.20;;
6027;SDS011;3042;43.194;27.646;2024-03-29T11:43:29;28.20;;;25.70;;
6027;SDS011;3042;43.194;27.646;2024-03-29T11:45:58;86.63;;;28.83;;
6027;SDS011;3042;43.194;27.646;2024-03-29T11:48:27;24.53;;;22.27;;
6027;SDS011;3042;43.194;27.646;2024-03-29T11:50:57;26.03;;;23.73;;
6027;SDS011;3042;43.194;27.646;2024-03-29T11:53:25;43.30;;;25.03;;
6027;SDS011;3042;43.194;27.646;2024-03-29T11:55:54;58.80;;;29.03;;
6027;SDS011;3042;43.194;27.646;2024-03-29T11:58:22;33.73;;;28.93;;
6027;SDS011;3042;43.194;27.646;2024-03-29T12:00:50;27.50;;;24.40;;
6027;SDS011;3042;43.194;27.646;2024-03-29T12:03:18;25.13;;;22.83;;
6027;SDS011;3042;43.194;27.646;2024-03-29T12:05:49;31.97;;;25.03;;
6027;SDS011;3042;43.194;27.646;2024-03-29T12:08:19;25.60;;;23.30;;
6027;SDS011;3042;43.194;27.646;2024-03-29T12:10:46;35.30;;;23.87;;
6027;SDS011;3042;43.194;27.646;2024-03-29T12:13:15;37.93;;;27.50;;
6027;SDS011;3042;43.194;27.646;2024-03-29T12:15:43;30.60;;;25.03;;
6027;SDS011;3042;43.194;27.646;2024-03-29T12:18:11;24.57;;;22.60;;
6027;SDS011;3042;43.194;27.646;2024-03-29T12:20:41;31.20;;;24.10;;
6027;SDS011;3042;43.194;27.646;2024-03-29T12:23:15;25.83;;;22.00;;
6027;SDS011;3042;43.194;27.646;2024-03-29T12:25:43;22.83;;;20.43;;
6027;SDS011;3042;43.194;27.646;2024-03-29T12:28:11;27.70;;;21.17;;
6027;SDS011;3042;43.194;27.646;2024-03-29T12:30:41;26.23;;;21.87;;
6027;SDS011;3042;43.194;27.646;2024-03-29T12:33:11;24.40;;;21.77;;
6027;SDS011;3042;43.194;27.646;2024-03-29T12:35:41;23.97;;;21.70;;
6027;SDS011;3042;43.194;27.646;2024-03-29T12:38:11;20.27;;;18.13;;
6027;SDS011;3042;43.194;27.646;2024-03-29T12:40:40;33.53;;;19.43;;
6027;SDS011;3042;43.194;27.646;2024-03-29T12:43:09;23.03;;;18.07;;
6027;SDS011;3042;43.194;27.646;2024-03-29T12:45:38;27.47;;;18.30;;
6027;SDS011;3042;43.194;27.646;2024-03-29T12:48:09;24.57;;;22.60;;
6027;SDS011;3042;43.194;27.646;2024-03-29T12:50:37;24.57;;;22.43;;
6027;SDS011;3042;43.194;27.646;2024-03-29T12:53:07;26.20;;;22.80;;
6027;SDS011;3042;43.194;27.646;2024-03-29T12:55:36;26.50;;;23.77;;
6027;SDS011;3042;43.194;27.646;2024-03-29T12:58:08;30.27;;;23.07;;
6027;SDS011;3042;43.194;27.646;2024-03-29T13:00:36;26.03;;;23.17;;
6027;SDS011;3042;43.194;27.646;2024-03-29T13:03:04;24.33;;;22.43;;
6027;SDS011;3042;43.194;27.646;2024-03-29T13:05:31;25.87;;;23.20;;
6027;SDS011;3042;43.194;27.646;2024-03-29T13:08:02;25.07;;;22.90;;
6027;SDS011;3042;43.194;27.646;2024-03-29T13:10:32;26.13;;;23.77;;
6027;SDS011;3042;43.194;27.646;2024-03-29T13:12:59;24.50;;;22.60;;
6027;SDS011;3042;43.194;27.646;2024-03-29T13:15:28;30.47;;;28.27;;
6027;SDS011;3042;43.194;27.646;2024-03-29T13:17:55;24.27;;;22.37;;
6027;SDS011;3042;43.194;27.646;2024-03-29T13:20:24;24.63;;;22.17;;
6027;SDS011;3042;43.194;27.646;2024-03-29T13:22:51;23.90;;;20.50;;
6027;SDS011;3042;43.194;27.646;2024-03-29T13:25:20;32.23;;;22.43;;
6027;SDS011;3042;43.194;27.646;2024-03-29T13:27:49;45.70;;;20.67;;
6027;SDS011;3042;43.194;27.646;2024-03-29T13:30:19;28.27;;;26.30;;
6027;SDS011;3042;43.194;27.646;2024-03-29T13:32:48;18.30;;;16.33;;
6027;SDS011;3042;43.194;27.646;2024-03-29T13:35:16;18.80;;;16.87;;
6027;SDS011;3042;43.194;27.646;2024-03-29T13:37:47;17.23;;;16.03;;
6027;SDS011;3042;43.194;27.646;2024-03-29T13:40:15;19.83;;;18.13;;
6027;SDS011;3042;43.194;27.646;2024-03-29T13:42:44;20.27;;;18.77;;
6027;SDS011;3042;43.194;27.646;2024-03-29T13:45:11;23.80;;;21.97;;
6027;SDS011;3042;43.194;27.646;2024-03-29T13:47:39;30.60;;;24.87;;
6027;SDS011;3042;43.194;27.646;2024-03-29T13:50:09;31.60;;;28.97;;
6027;SDS011;3042;43.194;27.646;2024-03-29T13:52:39;41.53;;;25.20;;
6027;SDS011;3042;43.194;27.646;2024-03-29T13:55:06;28.37;;;22.17;;
6027;SDS011;3042;43.194;27.646;2024-03-29T13:57:34;26.20;;;23.90;;
6027;SDS011;3042;43.194;27.646;2024-03-29T14:00:02;25.70;;;23.70;;
6027;SDS011;3042;43.194;27.646;2024-03-29T14:02:31;26.47;;;24.13;;
6027;SDS011;3042;43.194;27.646;2024-03-29T14:04:58;25.03;;;23.10;;
6027;SDS011;3042;43.194;27.646;2024-03-29T14:07:27;22.20;;;16.07;;
6027;SDS011;3042;43.194;27.646;2024-03-29T14:09:54;18.60;;;16.80;;
6027;SDS011;3042;43.194;27.646;2024-03-29T14:12:24;18.67;;;16.80;;
6027;SDS011;3042;43.194;27.646;2024-03-29T14:14:51;39.43;;;21.40;;
6027;SDS011;3042;43.194;27.646;2024-03-29T14:17:19;17.83;;;16.20;;
6027;SDS011;3042;43.194;27.646;2024-03-29T14:19:46;19.53;;;17.50;;
6027;SDS011;3042;43.194;27.646;2024-03-29T14:22:14;20.03;;;18.27;;
6027;SDS011;3042;43.194;27.646;2024-03-29T14:24:45;27.17;;;18.67;;
6027;SDS011;3042;43.194;27.646;2024-03-29T14:27:13;17.03;;;15.93;;
6027;SDS011;3042;43.194;27.646;2024-03-29T14:29:40;19.00;;;17.10;;
6027;SDS011;3042;43.194;27.646;2024-03-29T14:32:10;19.23;;;16.70;;
6027;SDS011;3042;43.194;27.646;2024-03-29T14:34:37;27.40;;;19.17;;
6027;SDS011;3042;43.194;27.646;2024-03-29T14:37:09;19.53;;;17.60;;
6027;SDS011;3042;43.194;27.646;2024-03-29T14:39:38;29.60;;;24.50;;
6027;SDS011;3042;43.194;27.646;2024-03-29T14:42:08;52.80;;;27.67;;
6027;SDS011;3042;43.194;27.646;2024-03-29T14:44:37;26.07;;;23.47;;